Time;durP1;ratioP1;P1;durP2;ratioP2;P2;SDS_P1;SDS_P2;PMS_P1;PMS_P2;Temp;Humidity;BMP_temperature;BMP_pressure;BME280_temperature;BME280_humidity;BME280_pressure;Samples;Min_cycle;Max_cycle;Signal;HPM_P1;HPM_P2
2023/06/08 00:01:45;;;;;;;4.77;3.57;;;21.20;60.80;;;;;;4950525;28;20679;-64
2023/06/08 00:04:12;;;;;;;6.67;3.97;;;21.10;60.80;;;;;;4950928;28;20206;-65
2023/06/08 00:06:40;;;;;;;5.33;4.53;;;21.10;60.90;;;;;;4947289;28;20774;-66
2023/06/08 00:09:06;;;;;;;6.90;4.50;;;21.10;60.80;;;;;;4954125;28;20209;-66
2023/06/08 00:11:32;;;;;;;5.50;3.83;;;21.00;61.10;;;;;;4931900;28;20585;-66
2023/06/08 00:13:58;;;;;;;4.23;3.83;;;21.00;61.50;;;;;;4935164;28;20304;-66
2023/06/08 00:16:24;;;;;;;4.73;4.13;;;20.90;61.70;;;;;;4950151;28;20404;-66
2023/06/08 00:18:50;;;;;;;5.00;4.23;;;21.10;61.30;;;;;;4948201;28;20285;-66
2023/06/08 00:21:16;;;;;;;8.87;4.20;;;21.20;61.10;;;;;;4950490;28;20225;-65
2023/06/08 00:23:42;;;;;;;7.13;4.90;;;21.00;61.40;;;;;;4950030;28;20240;-65
2023/06/08 00:26:07;;;;;;;5.77;4.27;;;20.90;61.90;;;;;;4949912;28;20204;-66
2023/06/08 00:28:33;;;;;;;5.70;4.47;;;20.70;62.50;;;;;;4949769;28;20217;-65
2023/06/08 00:30:58;;;;;;;8.37;5.00;;;20.60;62.70;;;;;;4947957;28;20206;-65
2023/06/08 00:33:24;;;;;;;8.37;4.13;;;20.60;62.70;;;;;;4949113;28;20209;-64
2023/06/08 00:35:49;;;;;;;4.90;4.27;;;20.70;62.40;;;;;;4949077;28;20715;-65
2023/06/08 00:38:15;;;;;;;5.53;4.60;;;20.70;62.70;;;;;;4949235;28;20332;-66
2023/06/08 00:40:42;;;;;;;7.27;5.30;;;20.60;63.00;;;;;;4948710;28;20677;-66
2023/06/08 00:43:08;;;;;;;7.20;4.27;;;20.50;63.00;;;;;;4947006;28;20759;-65
2023/06/08 00:45:33;;;;;;;8.97;5.10;;;20.50;63.20;;;;;;4952530;28;20201;-65
2023/06/08 00:47:59;;;;;;;6.20;4.50;;;20.50;63.20;;;;;;4947406;28;20202;-66
2023/06/08 00:50:25;;;;;;;9.40;5.10;;;20.40;63.20;;;;;;4950002;28;20209;-65
2023/06/08 00:52:50;;;;;;;4.87;4.40;;;20.50;63.10;;;;;;4948205;28;20197;-65
2023/06/08 00:55:19;;;;;;;5.13;4.63;;;20.50;62.90;;;;;;4952529;28;20255;-65
2023/06/08 00:57:47;;;;;;;5.73;4.23;;;20.40;63.30;;;;;;4948891;28;20303;-65
2023/06/08 01:00:14;;;;;;;4.43;4.00;;;20.40;63.80;;;;;;4948842;28;20198;-66
2023/06/08 01:02:41;;;;;;;5.23;4.27;;;20.30;63.80;;;;;;4931388;29;20209;-66
2023/06/08 01:05:07;;;;;;;8.03;4.40;;;20.20;63.40;;;;;;4946826;28;20202;-65
2023/06/08 01:07:44;;;;;;;4.57;3.73;;;20.30;63.00;;;;;;4949434;28;20699;-66
2023/06/08 01:10:33;;;;;;;6.87;4.67;;;20.30;63.10;;;;;;4950112;28;20778;-65
2023/06/08 01:13:13;;;;;;;5.20;4.53;;;20.20;62.90;;;;;;4945786;28;20700;-65
2023/06/08 01:15:51;;;;;;;6.30;4.77;;;20.10;62.90;;;;;;4940398;28;20231;-65
2023/06/08 01:18:23;;;;;;;6.93;4.63;;;20.10;62.90;;;;;;4949230;28;20240;-66
2023/06/08 01:21:14;;;;;;;9.23;5.07;;;20.00;63.30;;;;;;4945712;28;20225;-66
2023/06/08 01:23:58;;;;;;;5.60;4.23;;;19.90;63.40;;;;;;4947867;28;20221;-66
2023/06/08 01:26:26;;;;;;;5.47;3.83;;;19.90;63.90;;;;;;4944345;28;20205;-66
2023/06/08 01:28:52;;;;;;;7.27;4.37;;;19.90;64.50;;;;;;4947470;28;20210;-69
2023/06/08 01:31:18;;;;;;;9.07;5.03;;;19.80;64.30;;;;;;4947878;28;20212;-64
2023/06/08 01:33:44;;;;;;;5.03;4.40;;;19.90;63.40;;;;;;4946685;28;20574;-65
2023/06/08 01:36:25;;;;;;;4.57;4.03;;;20.00;63.00;;;;;;4948255;28;20234;-66
2023/06/08 01:39:01;;;;;;;5.60;4.90;;;19.90;63.10;;;;;;4941818;28;20858;-67
2023/06/08 01:41:37;;;;;;;7.83;4.87;;;19.90;63.60;;;;;;4949051;28;20216;-65
2023/06/08 01:44:06;;;;;;;7.07;5.00;;;19.80;63.50;;;;;;4944475;28;20566;-65
2023/06/08 01:46:32;;;;;;;7.43;5.13;;;19.60;64.10;;;;;;4948000;28;20206;-69
2023/06/08 01:48:59;;;;;;;6.03;5.17;;;19.60;63.90;;;;;;4948260;28;20231;-65
2023/06/08 01:51:26;;;;;;;5.73;4.87;;;19.70;63.90;;;;;;4947163;28;20745;-64
2023/06/08 01:54:06;;;;;;;5.03;4.63;;;19.60;63.60;;;;;;4951566;28;20208;-64
2023/06/08 01:56:33;;;;;;;5.30;4.70;;;19.60;63.90;;;;;;4945484;28;20230;-65
2023/06/08 01:58:59;;;;;;;4.80;4.30;;;19.60;63.90;;;;;;4942413;28;20212;-64
2023/06/08 02:01:25;;;;;;;5.27;4.53;;;19.60;63.30;;;;;;4947987;28;20210;-64
2023/06/08 02:03:50;;;;;;;5.10;4.57;;;19.50;63.00;;;;;;4947740;28;20281;-64
2023/06/08 02:06:16;;;;;;;6.83;4.73;;;19.40;63.40;;;;;;4945758;28;20597;-65
2023/06/08 02:08:42;;;;;;;8.10;5.50;;;19.30;63.30;;;;;;4939374;28;20217;-64
2023/06/08 02:11:09;;;;;;;5.63;4.50;;;19.20;63.20;;;;;;4948303;28;20956;-65
2023/06/08 02:13:38;;;;;;;6.07;4.37;;;19.20;63.40;;;;;;4948441;28;20709;-66
2023/06/08 02:16:04;;;;;;;5.77;4.90;;;19.40;63.30;;;;;;4948114;28;20274;-65
2023/06/08 02:18:30;;;;;;;6.27;4.47;;;19.30;63.30;;;;;;4948461;28;20588;-65
2023/06/08 02:20:56;;;;;;;8.73;5.03;;;19.30;62.70;;;;;;4945737;28;20201;-65
2023/06/08 02:23:21;;;;;;;5.73;5.13;;;19.40;62.40;;;;;;4947581;28;20244;-64
2023/06/08 02:25:49;;;;;;;6.20;4.17;;;19.40;62.40;;;;;;4947645;28;20202;-67
2023/06/08 02:28:15;;;;;;;5.77;5.17;;;19.30;62.90;;;;;;4947718;28;20550;-67
2023/06/08 02:30:40;;;;;;;6.10;4.13;;;19.10;63.40;;;;;;4951965;28;20260;-67
2023/06/08 02:33:06;;;;;;;7.80;4.30;;;19.00;63.60;;;;;;4944749;28;20199;-65
2023/06/08 02:35:31;;;;;;;7.80;4.30;;;19.00;63.60;;;;;;4958072;28;20278;-64
2023/06/08 02:37:57;;;;;;;4.83;3.93;;;18.90;63.30;;;;;;4956805;28;20834;-65
2023/06/08 02:40:22;;;;;;;5.83;4.67;;;18.90;63.10;;;;;;4957738;28;20203;-65
2023/06/08 02:42:48;;;;;;;6.23;5.10;;;19.00;62.60;;;;;;4957347;28;20932;-64
2023/06/08 02:45:13;;;;;;;5.13;4.63;;;19.00;62.20;;;;;;4955485;28;20689;-64
2023/06/08 02:47:39;;;;;;;5.43;4.63;;;19.00;62.20;;;;;;4957324;28;20212;-65
2023/06/08 02:50:05;;;;;;;5.43;4.90;;;19.10;62.00;;;;;;4957613;28;20284;-65
2023/06/08 02:52:30;;;;;;;13.73;5.43;;;19.00;62.10;;;;;;4957394;28;20708;-64
2023/06/08 02:54:56;;;;;;;5.47;4.20;;;18.90;63.60;;;;;;4952849;28;20227;-64
2023/06/08 02:57:21;;;;;;;6.30;4.57;;;18.80;63.00;;;;;;4955306;28;20264;-66
2023/06/08 02:59:47;;;;;;;6.63;4.73;;;18.80;63.60;;;;;;4957078;28;20684;-66
2023/06/08 03:02:12;;;;;;;12.87;4.97;;;18.70;63.50;;;;;;4952675;28;20285;-65
2023/06/08 03:04:38;;;;;;;6.03;5.10;;;18.70;64.20;;;;;;4933805;28;20252;-64
2023/06/08 03:07:04;;;;;;;5.30;4.80;;;18.70;64.70;;;;;;4954665;28;20224;-64
2023/06/08 03:09:29;;;;;;;8.70;5.00;;;18.60;64.80;;;;;;4960270;28;20924;-64
2023/06/08 03:11:59;;;;;;;8.83;5.03;;;18.60;65.10;;;;;;4961012;28;20215;-65
2023/06/08 03:14:28;;;;;;;6.67;5.23;;;18.60;65.20;;;;;;4960762;28;20716;-64
2023/06/08 03:16:57;;;;;;;12.47;5.53;;;18.60;65.60;;;;;;4951382;28;20249;-65
2023/06/08 03:19:24;;;;;;;5.97;5.07;;;18.60;65.90;;;;;;4960919;28;20639;-64
2023/06/08 03:21:49;;;;;;;6.87;5.40;;;18.60;66.30;;;;;;4960254;28;20282;-66
2023/06/08 03:24:15;;;;;;;7.27;5.17;;;18.60;66.20;;;;;;4958575;28;20396;-65
2023/06/08 03:26:40;;;;;;;5.70;5.10;;;18.60;66.20;;;;;;4956458;28;20565;-64
2023/06/08 03:29:06;;;;;;;8.20;5.13;;;18.50;66.60;;;;;;4960237;28;20861;-64
2023/06/08 03:31:36;;;;;;;5.53;5.00;;;18.50;66.50;;;;;;4956984;28;20198;-66
2023/06/08 03:34:03;;;;;;;7.40;5.50;;;18.60;67.20;;;;;;4957593;28;20544;-66
2023/06/08 03:36:33;;;;;;;6.57;5.20;;;18.40;67.10;;;;;;4958635;28;20224;-66
2023/06/08 03:39:00;;;;;;;10.10;5.47;;;18.40;67.70;;;;;;4955688;28;20209;-65
2023/06/08 03:41:26;;;;;;;7.60;5.47;;;18.40;67.70;;;;;;4960297;28;20240;-64
2023/06/08 03:43:52;;;;;;;9.53;5.40;;;18.40;67.40;;;;;;4958114;28;20217;-65
2023/06/08 03:46:17;;;;;;;7.83;4.70;;;18.40;67.80;;;;;;4959820;28;20820;-65
2023/06/08 03:48:43;;;;;;;8.33;5.40;;;18.50;67.30;;;;;;4959890;28;20210;-67
2023/06/08 03:51:08;;;;;;;8.57;5.00;;;18.50;67.10;;;;;;4959679;28;20213;-68
2023/06/08 03:53:34;;;;;;;10.20;6.13;;;18.40;67.40;;;;;;4960012;28;20292;-65
2023/06/08 03:56:00;;;;;;;5.83;5.30;;;18.50;67.30;;;;;;4939543;28;20920;-64
2023/06/08 03:58:25;;;;;;;5.87;4.73;;;18.50;67.80;;;;;;4955133;28;20218;-64
2023/06/08 04:00:51;;;;;;;6.37;4.93;;;18.40;67.90;;;;;;4953486;28;20431;-64
2023/06/08 04:03:16;;;;;;;5.67;4.80;;;18.40;67.80;;;;;;4959070;28;20286;-65
2023/06/08 04:05:42;;;;;;;7.63;5.63;;;18.40;67.40;;;;;;4954876;28;20565;-65
2023/06/08 04:08:07;;;;;;;5.30;4.80;;;18.40;67.30;;;;;;4956899;28;20689;-65
2023/06/08 04:10:33;;;;;;;6.80;5.63;;;18.40;67.50;;;;;;4959577;28;20200;-65
2023/06/08 04:12:58;;;;;;;7.20;5.70;;;18.40;68.00;;;;;;4959720;28;20198;-65
2023/06/08 04:15:25;;;;;;;6.23;5.03;;;18.40;66.90;;;;;;4959623;28;20212;-65
2023/06/08 04:17:51;;;;;;;5.47;4.97;;;18.40;66.10;;;;;;4959358;28;20207;-64
2023/06/08 04:20:16;;;;;;;6.03;5.00;;;18.60;66.10;;;;;;4953439;28;20201;-64
2023/06/08 04:22:42;;;;;;;6.73;5.30;;;18.60;65.90;;;;;;4957364;28;20649;-64
2023/06/08 04:25:08;;;;;;;7.53;5.37;;;18.60;66.70;;;;;;4959395;28;20204;-64
2023/06/08 04:27:34;;;;;;;6.97;5.07;;;18.50;66.70;;;;;;4959638;28;20209;-65
2023/06/08 04:30:00;;;;;;;6.40;4.80;;;18.60;66.70;;;;;;4959680;28;20290;-65
2023/06/08 04:32:26;;;;;;;7.87;5.90;;;18.60;66.60;;;;;;4954736;28;20218;-65
2023/06/08 04:34:51;;;;;;;5.93;5.23;;;18.70;66.30;;;;;;4957154;28;20297;-66
2023/06/08 04:37:17;;;;;;;6.30;4.70;;;18.80;66.40;;;;;;4959077;28;20220;-65
2023/06/08 04:39:42;;;;;;;7.53;5.37;;;18.80;66.00;;;;;;4959470;28;20211;-66
2023/06/08 04:42:08;;;;;;;5.67;5.13;;;18.90;65.70;;;;;;4959236;28;20613;-65
2023/06/08 04:44:34;;;;;;;7.87;5.10;;;18.90;63.30;;;;;;4958856;28;20683;-65
2023/06/08 04:47:01;;;;;;;7.00;5.57;;;18.90;61.90;;;;;;4952741;28;20209;-66
2023/06/08 04:49:30;;;;;;;6.37;5.17;;;19.00;61.50;;;;;;4959454;28;20212;-65
2023/06/08 04:51:59;;;;;;;5.87;5.07;;;19.00;61.70;;;;;;4959350;28;20761;-65
2023/06/08 04:54:27;;;;;;;6.67;5.27;;;19.10;61.20;;;;;;4959203;28;20236;-65
2023/06/08 04:56:59;;;;;;;6.57;4.87;;;19.10;60.20;;;;;;4956825;28;20220;-65
2023/06/08 04:59:28;;;;;;;6.63;5.80;;;19.10;60.00;;;;;;4958569;28;20829;-65
2023/06/08 05:01:56;;;;;;;7.37;4.63;;;19.10;59.30;;;;;;4958488;28;20291;-65
2023/06/08 05:04:21;;;;;;;4.90;4.43;;;19.10;59.90;;;;;;4958035;28;20195;-65
2023/06/08 05:06:47;;;;;;;5.40;4.90;;;19.20;59.20;;;;;;4957875;28;20214;-66
2023/06/08 05:09:13;;;;;;;4.90;4.50;;;19.20;58.70;;;;;;4958710;28;20289;-66
2023/06/08 05:11:39;;;;;;;5.63;4.57;;;19.20;58.70;;;;;;4958518;28;20235;-65
2023/06/08 05:14:05;;;;;;;6.50;4.87;;;19.30;58.80;;;;;;4958530;28;20213;-66
2023/06/08 05:16:31;;;;;;;6.80;5.40;;;19.40;58.60;;;;;;4958410;28;20219;-65
2023/06/08 05:18:56;;;;;;;5.73;4.47;;;19.40;58.60;;;;;;4957856;28;20706;-65
2023/06/08 05:21:22;;;;;;;7.30;5.23;;;19.50;57.90;;;;;;4955575;28;20805;-65
2023/06/08 05:23:47;;;;;;;5.40;4.90;;;19.50;57.40;;;;;;4951443;28;20228;-66
2023/06/08 05:26:13;;;;;;;6.33;4.77;;;19.30;57.40;;;;;;4951204;28;20207;-65
2023/06/08 05:28:38;;;;;;;6.73;5.10;;;19.20;58.50;;;;;;4958352;28;20655;-65
2023/06/08 05:31:04;;;;;;;4.63;4.23;;;19.40;58.30;;;;;;4952813;28;21134;-66
2023/06/08 05:33:29;;;;;;;7.53;4.50;;;19.50;58.10;;;;;;4955952;28;20993;-65
2023/06/08 05:35:55;;;;;;;7.27;4.97;;;19.60;58.50;;;;;;4958033;28;20232;-66
2023/06/08 05:38:21;;;;;;;5.57;5.03;;;19.60;58.10;;;;;;4957961;28;20678;-65
2023/06/08 05:40:46;;;;;;;6.70;5.67;;;19.50;58.10;;;;;;4957812;28;20235;-65
2023/06/08 05:43:12;;;;;;;5.43;4.63;;;19.70;56.80;;;;;;4958089;28;20178;-65
2023/06/08 05:45:37;;;;;;;6.17;4.77;;;19.80;56.30;;;;;;4958037;28;20568;-66
2023/06/08 05:48:03;;;;;;;10.33;5.27;;;19.80;56.80;;;;;;4955861;28;20201;-66
2023/06/08 05:50:29;;;;;;;7.53;5.73;;;19.70;56.50;;;;;;4958126;28;20567;-65
2023/06/08 05:52:54;;;;;;;9.00;4.90;;;19.80;57.20;;;;;;4957913;28;20290;-65
2023/06/08 05:55:20;;;;;;;6.60;5.10;;;19.70;57.70;;;;;;4957925;28;20961;-65
2023/06/08 05:57:45;;;;;;;5.73;4.97;;;19.60;58.10;;;;;;4957733;28;20389;-66
2023/06/08 06:00:12;;;;;;;6.53;4.47;;;19.70;58.30;;;;;;4956146;28;20208;-66
2023/06/08 06:02:40;;;;;;;6.13;5.03;;;19.70;57.60;;;;;;4958148;28;20216;-66
2023/06/08 06:05:09;;;;;;;11.57;5.37;;;19.90;57.70;;;;;;4957530;28;20782;-66
2023/06/08 06:07:35;;;;;;;7.03;5.07;;;20.00;58.20;;;;;;4957612;28;20294;-65
2023/06/08 06:10:05;;;;;;;6.13;5.37;;;20.00;58.60;;;;;;4955748;28;20226;-65
2023/06/08 06:12:31;;;;;;;7.63;5.37;;;20.20;56.40;;;;;;4956473;28;20226;-65
2023/06/08 06:14:56;;;;;;;6.60;4.90;;;20.30;56.60;;;;;;4957496;28;20955;-65
2023/06/08 06:17:22;;;;;;;5.63;4.30;;;20.30;56.10;;;;;;4940462;28;20976;-65
2023/06/08 06:19:48;;;;;;;7.77;5.20;;;20.30;56.60;;;;;;4957566;28;20203;-65
2023/06/08 06:22:15;;;;;;;5.13;4.67;;;20.30;56.30;;;;;;4955070;28;20201;-66
2023/06/08 06:24:40;;;;;;;7.90;4.70;;;20.40;57.30;;;;;;4957297;28;20707;-66
2023/06/08 06:27:06;;;;;;;5.47;4.37;;;20.50;56.90;;;;;;4957633;28;20200;-65
2023/06/08 06:29:32;;;;;;;8.37;4.73;;;20.50;56.80;;;;;;4957755;28;20209;-66
2023/06/08 06:31:57;;;;;;;5.47;4.97;;;20.60;56.10;;;;;;4957490;28;20227;-65
2023/06/08 06:34:23;;;;;;;6.17;5.00;;;20.70;56.60;;;;;;4957243;28;20229;-65
2023/06/08 06:36:48;;;;;;;11.23;5.00;;;20.70;56.60;;;;;;4949923;28;20251;-65
2023/06/08 06:39:14;;;;;;;4.90;4.40;;;20.90;57.10;;;;;;4953023;28;20279;-65
2023/06/08 06:41:40;;;;;;;6.40;4.57;;;21.00;56.20;;;;;;4955894;28;20232;-64
2023/06/08 06:44:06;;;;;;;7.70;4.37;;;21.10;55.90;;;;;;4958115;28;20678;-64
2023/06/08 06:46:32;;;;;;;7.07;4.67;;;21.20;56.00;;;;;;4961077;28;20295;-64
2023/06/08 06:48:58;;;;;;;10.13;5.27;;;21.20;56.70;;;;;;4961049;28;20337;-64
2023/06/08 06:51:23;;;;;;;5.10;4.30;;;21.40;57.00;;;;;;4959023;28;20288;-64
2023/06/08 06:53:49;;;;;;;4.63;4.20;;;21.40;57.20;;;;;;4961039;28;21107;-65
2023/06/08 06:56:14;;;;;;;7.87;4.93;;;21.50;57.40;;;;;;4960784;28;20228;-64
2023/06/08 06:58:46;;;;;;;5.80;4.20;;;21.50;57.00;;;;;;4956785;28;20924;-65
2023/06/08 07:01:12;;;;;;;6.70;4.47;;;21.60;57.80;;;;;;4959965;28;20189;-69
2023/06/08 07:03:40;;;;;;;8.02;4.95;;;21.70;57.30;;;;;;4960718;28;20759;-66
2023/06/08 07:06:06;;;;;;;6.90;4.63;;;21.80;57.10;;;;;;4960498;28;20296;-65
2023/06/08 07:08:33;;;;;;;6.50;4.50;;;21.90;57.30;;;;;;4960631;28;20261;-64
2023/06/08 07:10:59;;;;;;;7.80;4.17;;;22.00;57.60;;;;;;4960779;28;20208;-65
2023/06/08 07:13:25;;;;;;;9.88;5.18;;;22.00;57.70;;;;;;4958079;28;20197;-66
2023/06/08 07:15:50;;;;;;;6.35;4.30;;;22.00;57.50;;;;;;4945855;28;20296;-66
2023/06/08 07:18:16;;;;;;;7.43;4.05;;;22.10;56.40;;;;;;4946630;28;20309;-65
2023/06/08 07:20:42;;;;;;;8.35;4.47;;;22.20;56.70;;;;;;4946058;28;20209;-65
2023/06/08 07:23:07;;;;;;;7.18;4.70;;;22.30;56.10;;;;;;4945939;28;20304;-65
2023/06/08 07:25:32;;;;;;;6.63;4.33;;;22.40;56.50;;;;;;4950409;28;20252;-65
2023/06/08 07:27:58;;;;;;;6.30;4.87;;;22.50;54.90;;;;;;4960611;28;20687;-64
2023/06/08 07:30:24;;;;;;;4.93;3.93;;;22.60;54.80;;;;;;4960302;28;20229;-65
2023/06/08 07:32:51;;;;;;;4.75;4.32;;;22.70;54.80;;;;;;4960420;28;20206;-64
2023/06/08 07:35:16;;;;;;;5.60;4.63;;;22.80;54.70;;;;;;4959487;28;20214;-64
2023/06/08 07:37:42;;;;;;;5.85;4.65;;;22.90;55.10;;;;;;4947246;28;20639;-65
2023/06/08 07:40:08;;;;;;;4.85;4.15;;;22.90;55.60;;;;;;4941833;28;20266;-65
2023/06/08 07:42:34;;;;;;;8.18;4.32;;;23.00;55.30;;;;;;4944678;28;20570;-64
2023/06/08 07:45:00;;;;;;;5.68;5.07;;;23.10;56.80;;;;;;4944499;28;20202;-65
2023/06/08 07:47:25;;;;;;;7.07;4.38;;;23.20;55.10;;;;;;4944659;28;20216;-66
2023/06/08 07:49:52;;;;;;;5.82;4.20;;;23.30;55.20;;;;;;4945283;28;20206;-67
2023/06/08 07:52:18;;;;;;;7.00;4.57;;;23.40;54.70;;;;;;4954425;28;20213;-68
2023/06/08 07:54:43;;;;;;;6.45;4.75;;;23.50;55.10;;;;;;4957951;28;20570;-69
2023/06/08 07:57:09;;;;;;;10.60;4.90;;;23.60;54.10;;;;;;4959229;28;20218;-70
2023/06/08 07:59:34;;;;;;;6.22;4.90;;;23.70;53.40;;;;;;4954269;28;20673;-70
2023/06/08 08:02:00;;;;;;;6.43;4.00;;;23.70;54.40;;;;;;4956295;28;20206;-71
2023/06/08 08:04:25;;;;;;;5.40;4.72;;;23.70;55.40;;;;;;4950754;28;20842;-73
2023/06/08 08:06:51;;;;;;;9.23;4.45;;;23.70;55.30;;;;;;4951418;28;20572;-72
2023/06/08 08:09:16;;;;;;;5.72;4.32;;;23.80;55.20;;;;;;4945598;28;20233;-71
2023/06/08 08:11:42;;;;;;;5.70;4.72;;;24.00;56.30;;;;;;4947968;28;20203;-73
2023/06/08 08:14:09;;;;;;;7.25;4.57;;;23.90;55.10;;;;;;4944983;28;20640;-71
2023/06/08 08:16:39;;;;;;;5.00;4.28;;;24.00;55.00;;;;;;4947416;28;20220;-69
2023/06/08 08:19:05;;;;;;;5.35;4.43;;;24.00;54.10;;;;;;4949573;28;20200;-69
2023/06/08 08:21:31;;;;;;;5.25;4.75;;;24.20;53.60;;;;;;4945900;28;20272;-70
2023/06/08 08:23:56;;;;;;;6.32;4.47;;;24.20;54.10;;;;;;4948658;28;20225;-69
2023/06/08 08:26:22;;;;;;;7.22;5.20;;;24.30;52.70;;;;;;4946963;28;20675;-72
2023/06/08 08:28:47;;;;;;;6.88;4.38;;;24.30;54.30;;;;;;4948309;28;20210;-71
2023/06/08 08:31:13;;;;;;;5.40;4.57;;;24.40;53.90;;;;;;4948325;28;20198;-69
2023/06/08 08:33:39;;;;;;;4.35;3.92;;;24.50;53.00;;;;;;4948447;28;20293;-70
2023/06/08 08:36:05;;;;;;;5.70;4.18;;;24.60;52.80;;;;;;4948069;28;20723;-72
2023/06/08 08:38:31;;;;;;;9.23;4.25;;;24.70;54.70;;;;;;4959572;28;20568;-71
2023/06/08 08:41:09;;;;;;;4.85;4.45;;;24.60;54.30;;;;;;4957368;28;20202;-71
2023/06/08 08:43:54;;;;;;;7.32;4.82;;;24.80;52.60;;;;;;4959465;28;20753;-71
2023/06/08 08:46:22;;;;;;;5.18;4.63;;;25.00;53.80;;;;;;4958665;28;20201;-71
2023/06/08 08:48:50;;;;;;;4.47;4.10;;;24.90;54.10;;;;;;4951760;28;20681;-71
2023/06/08 08:51:18;;;;;;;4.50;4.10;;;25.00;54.10;;;;;;4952487;28;20185;-74
2023/06/08 08:53:49;;;;;;;4.55;4.07;;;25.20;52.80;;;;;;4956989;28;20211;-72
2023/06/08 08:56:22;;;;;;;6.30;4.97;;;25.20;53.70;;;;;;4947771;28;20265;-72
2023/06/08 08:58:53;;;;;;;5.95;4.15;;;25.30;52.20;;;;;;4947067;28;20201;-72
2023/06/08 09:01:19;;;;;;;5.85;5.13;;;25.40;52.10;;;;;;4946182;28;20206;-72
2023/06/08 09:03:46;;;;;;;10.40;4.68;;;25.40;51.30;;;;;;4945391;28;20202;-74
2023/06/08 09:06:11;;;;;;;5.72;4.15;;;25.60;51.40;;;;;;4949550;28;20937;-72
2023/06/08 09:08:37;;;;;;;6.22;4.50;;;25.60;52.60;;;;;;4932046;28;20291;-73
2023/06/08 09:11:04;;;;;;;5.25;4.72;;;25.60;53.70;;;;;;4945603;28;20655;-71
2023/06/08 09:13:31;;;;;;;4.65;4.15;;;25.60;52.60;;;;;;4953833;28;20983;-72
2023/06/08 09:16:10;;;;;;;4.80;3.85;;;25.70;51.90;;;;;;4954317;28;20207;-72
2023/06/08 09:18:36;;;;;;;6.13;4.90;;;25.80;51.60;;;;;;4955781;28;20201;-71
2023/06/08 09:21:28;;;;;;;5.80;4.55;;;26.00;53.20;;;;;;4936003;28;20319;-71
2023/06/08 09:24:03;;;;;;;4.75;3.92;;;26.00;51.40;;;;;;4956215;28;20277;-71
2023/06/08 09:26:31;;;;;;;5.45;3.83;;;25.90;53.50;;;;;;4958170;28;20207;-74
2023/06/08 09:28:57;;;;;;;6.45;5.40;;;25.90;51.00;;;;;;4958488;28;20203;-73
2023/06/08 09:31:22;;;;;;;4.78;4.38;;;25.90;57.30;;;;;;4951749;28;20662;-74
2023/06/08 09:33:48;;;;;;;7.78;4.60;;;25.60;61.80;;;;;;4958089;28;20710;-74
2023/06/08 09:36:16;;;;;;;8.07;5.03;;;25.40;57.70;;;;;;4958197;28;20217;-74
2023/06/08 09:38:45;;;;;;;10.23;4.55;;;25.40;56.10;;;;;;4958244;28;20945;-73
2023/06/08 09:41:22;;;;;;;5.18;4.68;;;25.40;60.20;;;;;;4958122;28;20293;-74
2023/06/08 09:43:50;;;;;;;4.53;4.13;;;25.20;60.00;;;;;;4952800;28;20710;-74
2023/06/08 09:46:39;;;;;;;6.70;4.68;;;25.20;53.70;;;;;;4955707;28;20356;-70
2023/06/08 09:49:06;;;;;;;4.72;4.32;;;25.20;55.90;;;;;;4947883;28;20669;-71
2023/06/08 09:51:36;;;;;;;9.70;5.00;;;25.20;57.90;;;;;;4947190;28;20225;-71
2023/06/08 09:54:03;;;;;;;6.53;4.65;;;25.30;55.40;;;;;;4945158;28;20205;-71
2023/06/08 09:56:29;;;;;;;5.20;4.78;;;25.40;54.00;;;;;;4947594;28;20214;-71
2023/06/08 09:58:56;;;;;;;5.20;4.60;;;25.50;59.50;;;;;;4946306;28;20202;-71
2023/06/08 10:01:30;;;;;;;8.65;4.10;;;25.30;55.50;;;;;;4946241;28;20202;-71
2023/06/08 10:03:59;;;;;;;5.40;4.03;;;25.40;58.90;;;;;;4944138;28;20952;-71
2023/06/08 10:06:26;;;;;;;4.70;4.20;;;25.60;56.50;;;;;;4946856;28;20239;-70
2023/06/08 10:08:55;;;;;;;5.00;4.50;;;25.40;59.00;;;;;;4948295;28;20670;-72
2023/06/08 10:11:21;;;;;;;6.10;3.92;;;25.50;55.50;;;;;;4947866;28;20207;-76
2023/06/08 10:13:47;;;;;;;5.32;4.53;;;25.50;57.90;;;;;;4952531;28;20289;-75
2023/06/08 10:16:13;;;;;;;6.50;4.00;;;25.70;52.30;;;;;;4946750;28;20303;-74
2023/06/08 10:18:40;;;;;;;6.03;5.53;;;25.90;52.30;;;;;;4957005;28;20203;-74
2023/06/08 10:21:06;;;;;;;5.78;4.45;;;26.00;52.40;;;;;;4955104;28;20955;-72
2023/06/08 10:23:33;;;;;;;16.73;6.18;;;26.20;53.30;;;;;;4960575;28;20224;-82
2023/06/08 10:26:00;;;;;;;10.82;5.30;;;26.00;59.30;;;;;;4948011;28;20306;-72
2023/06/08 10:28:25;;;;;;;5.95;4.03;;;25.80;67.80;;;;;;4951571;28;20220;-72
2023/06/08 10:30:51;;;;;;;5.10;4.53;;;25.00;71.40;;;;;;4947715;28;20195;-73
2023/06/08 10:33:20;;;;;;;8.10;4.53;;;24.90;62.90;;;;;;4952382;28;20205;-72
2023/06/08 10:36:03;;;;;;;6.75;4.75;;;25.40;55.40;;;;;;4931543;28;20202;-73
2023/06/08 10:38:34;;;;;;;6.68;5.72;;;25.70;55.50;;;;;;4950159;28;20627;-73
2023/06/08 10:40:59;;;;;;;7.32;4.32;;;25.70;58.60;;;;;;4950436;28;20727;-76
2023/06/08 10:43:34;;;;;;;12.85;4.47;;;26.10;61.10;;;;;;4953337;28;20205;-78
2023/06/08 10:45:59;;;;;;;8.07;4.13;;;25.80;62.20;;;;;;4952423;28;20224;-77
2023/06/08 10:48:36;;;;;;;6.55;4.63;;;25.50;59.40;;;;;;4954592;28;20315;-76
2023/06/08 10:51:04;;;;;;;4.55;4.20;;;25.00;58.20;;;;;;4948175;28;20223;-76
2023/06/08 10:53:40;;;;;;;8.88;5.00;;;25.10;57.00;;;;;;4944402;28;20205;-73
2023/06/08 10:56:06;;;;;;;7.07;4.78;;;25.20;60.00;;;;;;4945271;28;21147;-70
2023/06/08 10:58:50;;;;;;;4.88;4.15;;;25.20;60.80;;;;;;4954533;28;20208;-69
2023/06/08 11:01:19;;;;;;;8.15;4.28;;;25.10;59.90;;;;;;4947002;28;20194;-70
2023/06/08 11:03:46;;;;;;;5.90;4.60;;;25.70;62.00;;;;;;4951319;28;20190;-72
2023/06/08 11:06:13;;;;;;;7.05;4.18;;;26.10;55.20;;;;;;4933774;28;20798;-70
2023/06/08 11:08:39;;;;;;;5.60;4.93;;;26.40;57.90;;;;;;4952691;28;20235;-73
2023/06/08 11:11:05;;;;;;;5.82;4.60;;;26.60;51.60;;;;;;4949202;28;20203;-71
2023/06/08 11:13:31;;;;;;;6.47;4.70;;;26.90;51.30;;;;;;4948375;28;20570;-71
2023/06/08 11:15:56;;;;;;;8.82;4.65;;;26.90;54.50;;;;;;4951705;28;20210;-74
2023/06/08 11:18:23;;;;;;;4.88;4.07;;;27.40;52.70;;;;;;4933990;28;20315;-71
2023/06/08 11:20:50;;;;;;;6.72;4.68;;;27.30;55.40;;;;;;4951180;28;20204;-72
2023/06/08 11:23:16;;;;;;;6.28;4.70;;;27.40;57.00;;;;;;4949763;28;20777;-73
2023/06/08 11:25:44;;;;;;;8.55;4.80;;;27.30;55.40;;;;;;4949056;28;20224;-71
2023/06/08 11:28:11;;;;;;;6.78;4.80;;;27.20;55.80;;;;;;4947969;28;20203;-72
2023/06/08 11:30:37;;;;;;;5.60;4.00;;;27.70;49.40;;;;;;4949430;28;20758;-73
2023/06/08 11:33:08;;;;;;;5.22;4.25;;;27.80;53.80;;;;;;4951801;28;20524;-73
2023/06/08 11:35:36;;;;;;;4.93;4.53;;;27.50;52.70;;;;;;4949222;28;20742;-74
2023/06/08 11:38:02;;;;;;;8.27;4.32;;;27.50;51.40;;;;;;4952163;28;20244;-74
2023/06/08 11:40:29;;;;;;;5.18;4.03;;;27.50;53.00;;;;;;4951536;28;20242;-73
2023/06/08 11:42:56;;;;;;;4.65;4.25;;;27.80;50.20;;;;;;4950491;28;20205;-73
2023/06/08 11:45:23;;;;;;;4.97;4.18;;;28.20;46.90;;;;;;4951040;28;20558;-72
2023/06/08 11:47:50;;;;;;;4.43;4.13;;;28.00;50.00;;;;;;4948046;28;20213;-72
2023/06/08 11:50:16;;;;;;;4.90;3.80;;;28.20;47.80;;;;;;4952126;28;20204;-71
2023/06/08 11:52:44;;;;;;;4.80;4.13;;;28.50;47.30;;;;;;4953096;28;20287;-73
2023/06/08 11:55:12;;;;;;;4.57;4.13;;;28.60;47.80;;;;;;4950608;28;20565;-72
2023/06/08 11:57:40;;;;;;;7.22;5.20;;;28.50;48.10;;;;;;4947381;28;20229;-78
2023/06/08 12:00:09;;;;;;;6.07;4.25;;;28.80;53.10;;;;;;4952968;28;20436;-80
2023/06/08 12:02:38;;;;;;;4.32;4.03;;;28.50;53.60;;;;;;4948438;28;20273;-79
2023/06/08 12:05:05;;;;;;;5.18;4.00;;;28.40;47.30;;;;;;4948125;28;20233;-79
2023/06/08 12:07:32;;;;;;;4.75;4.35;;;28.60;45.50;;;;;;4947353;28;20198;-78
2023/06/08 12:09:58;;;;;;;4.93;4.50;;;28.60;45.70;;;;;;4952810;28;20261;-76
2023/06/08 12:12:28;;;;;;;5.43;4.40;;;28.50;49.40;;;;;;4947726;28;20248;-81
2023/06/08 12:14:55;;;;;;;4.68;4.32;;;28.90;50.70;;;;;;4938608;28;20213;-76
2023/06/08 12:17:25;;;;;;;5.53;4.60;;;28.70;48.80;;;;;;4942632;28;20218;-76
2023/06/08 12:19:52;;;;;;;12.35;4.53;;;28.50;46.50;;;;;;4939337;28;20416;-76
2023/06/08 12:22:17;;;;;;;6.43;3.90;;;28.70;51.30;;;;;;4931513;28;20198;-75
2023/06/08 12:24:43;;;;;;;5.20;4.30;;;29.00;48.40;;;;;;4951354;28;20225;-74
2023/06/08 12:27:09;;;;;;;7.55;4.47;;;29.30;47.00;;;;;;4954221;28;20205;-75
2023/06/08 12:29:38;;;;;;;4.65;4.25;;;29.90;46.80;;;;;;4950386;28;20193;-75
2023/06/08 12:32:04;;;;;;;5.93;4.45;;;30.10;44.80;;;;;;4948226;28;20610;-74
2023/06/08 12:34:33;;;;;;;6.88;4.47;;;30.00;43.60;;;;;;4946854;28;20272;-74
2023/06/08 12:36:59;;;;;;;4.03;3.72;;;29.80;44.10;;;;;;4953103;28;20240;-78
2023/06/08 12:39:25;;;;;;;9.50;4.63;;;30.00;46.10;;;;;;4950167;28;20668;-81
2023/06/08 12:41:51;;;;;;;6.05;4.22;;;30.50;45.50;;;;;;4950070;28;20259;-78
2023/06/08 12:44:17;;;;;;;5.63;4.55;;;30.90;42.30;;;;;;4948214;28;20206;-77
2023/06/08 12:46:43;;;;;;;4.90;4.50;;;30.60;43.00;;;;;;4948886;28;20650;-77